Time;durP1;ratioP1;P1;durP2;ratioP2;P2;SDS_P1;SDS_P2;PMS_P1;PMS_P2;Temp;Humidity;BMP_temperature;BMP_pressure;BME280_temperature;BME280_humidity;BME280_pressure;Samples;Min_cycle;Max_cycle;Signal;HPM_P1;HPM_P2
2023/04/10 00:01:04;;;;;;;5.32;4.00;;;4.10;98.20;;;;;;5053267;28;20083;-78
2023/04/10 00:03:30;;;;;;;4.40;3.42;;;4.10;98.30;;;;;;5052003;28;20430;-76
2023/04/10 00:05:56;;;;;;;5.35;3.58;;;4.10;98.40;;;;;;5052943;28;20112;-78
2023/04/10 00:08:23;;;;;;;5.35;3.70;;;4.10;98.50;;;;;;5044990;28;20164;-77
2023/04/10 00:10:49;;;;;;;5.28;3.85;;;4.00;98.40;;;;;;5041047;28;20280;-78
2023/04/10 00:13:15;;;;;;;4.80;3.42;;;4.00;98.50;;;;;;5032968;28;20032;-78
2023/04/10 00:15:42;;;;;;;3.90;3.30;;;4.00;98.50;;;;;;5032170;28;20056;-77
2023/04/10 00:18:07;;;;;;;5.15;3.47;;;3.90;98.50;;;;;;5032789;28;20083;-78
2023/04/10 00:20:33;;;;;;;5.22;3.75;;;3.90;98.60;;;;;;5032823;28;20017;-78
2023/04/10 00:22:59;;;;;;;3.80;3.10;;;3.90;98.60;;;;;;5032188;28;20033;-78
2023/04/10 00:25:25;;;;;;;3.95;3.20;;;3.90;98.90;;;;;;5050900;28;20017;-78
2023/04/10 00:27:54;;;;;;;3.22;2.67;;;3.80;98.70;;;;;;5051962;28;20017;-78
2023/04/10 00:30:20;;;;;;;4.05;2.97;;;3.80;98.70;;;;;;5052115;28;20048;-78
2023/04/10 00:32:46;;;;;;;5.22;3.40;;;3.80;98.70;;;;;;5051818;28;20028;-78
2023/04/10 00:35:12;;;;;;;3.55;2.58;;;3.80;98.80;;;;;;5033847;28;20033;-76
2023/04/10 00:37:37;;;;;;;4.05;2.75;;;3.80;98.80;;;;;;5033431;28;20435;-77
2023/04/10 00:40:05;;;;;;;3.88;2.72;;;3.80;98.90;;;;;;5040989;28;20014;-76
2023/04/10 00:42:31;;;;;;;4.05;2.80;;;3.80;98.90;;;;;;5032213;28;20021;-76
2023/04/10 00:44:57;;;;;;;3.35;2.70;;;3.80;98.90;;;;;;5042505;28;20037;-77
2023/04/10 00:47:24;;;;;;;2.92;2.30;;;3.80;98.90;;;;;;5052477;28;20021;-76
2023/04/10 00:49:50;;;;;;;3.63;2.55;;;3.80;98.90;;;;;;5052047;28;20028;-77
2023/04/10 00:52:16;;;;;;;3.20;2.28;;;3.80;98.90;;;;;;5051456;28;20024;-78
2023/04/10 00:54:42;;;;;;;2.60;2.10;;;3.80;99.10;;;;;;5050809;28;20504;-77
2023/04/10 00:57:08;;;;;;;2.60;2.08;;;3.70;98.80;;;;;;5049806;28;20075;-78
2023/04/10 00:59:34;;;;;;;3.33;2.60;;;3.70;98.90;;;;;;5049868;28;20083;-78
2023/04/10 01:02:00;;;;;;;2.53;2.08;;;3.70;98.80;;;;;;5051520;28;20025;-78
2023/04/10 01:04:27;;;;;;;2.85;2.03;;;3.70;98.70;;;;;;5050059;28;20023;-79
2023/04/10 01:07:19;;;;;;;2.50;2.30;;;3.70;98.70;;;;;;5054178;28;20100;-76
2023/04/10 01:10:22;;;;;;;2.30;1.88;;;3.70;98.70;;;;;;5050151;28;20021;-78
2023/04/10 01:13:26;;;;;;;2.78;2.10;;;3.70;98.60;;;;;;5030446;28;20037;-77
2023/04/10 01:16:09;;;;;;;2.85;2.13;;;3.60;98.60;;;;;;5041024;28;20119;-77
2023/04/10 01:18:49;;;;;;;2.30;2.00;;;3.60;98.60;;;;;;5040653;28;20030;-77
2023/04/10 01:21:20;;;;;;;2.55;1.88;;;3.60;98.60;;;;;;5036593;28;20322;-77
2023/04/10 01:24:34;;;;;;;2.90;2.25;;;3.60;98.60;;;;;;5032328;28;20513;-76
2023/04/10 01:27:10;;;;;;;2.58;1.80;;;3.60;98.50;;;;;;5012949;28;20071;-76
2023/04/10 01:29:38;;;;;;;2.65;1.90;;;3.60;98.50;;;;;;5034774;28;20021;-77
2023/04/10 01:32:10;;;;;;;1.75;1.50;;;3.60;98.50;;;;;;5035028;28;20493;-78
2023/04/10 01:34:46;;;;;;;2.25;1.70;;;3.60;98.60;;;;;;5031648;28;20078;-77
2023/04/10 01:37:24;;;;;;;2.42;2.08;;;3.60;98.70;;;;;;5032016;28;20033;-77
2023/04/10 01:39:59;;;;;;;2.38;2.10;;;3.50;98.70;;;;;;5039571;28;20070;-77
2023/04/10 01:42:31;;;;;;;3.72;2.90;;;3.50;98.80;;;;;;5032334;28;20025;-76
2023/04/10 01:44:58;;;;;;;4.18;3.13;;;3.50;98.80;;;;;;5030381;28;20160;-76
2023/04/10 01:47:25;;;;;;;4.75;3.58;;;3.50;98.70;;;;;;5046468;28;20033;-76
2023/04/10 01:49:56;;;;;;;5.60;3.42;;;3.50;98.70;;;;;;5052072;28;20025;-77
2023/04/10 01:52:23;;;;;;;4.22;2.92;;;3.40;98.70;;;;;;5051793;28;20044;-78
2023/04/10 01:54:51;;;;;;;3.78;2.83;;;3.30;98.80;;;;;;5057520;28;20077;-76
2023/04/10 01:57:17;;;;;;;4.45;3.00;;;3.20;98.90;;;;;;5053111;28;20021;-76
2023/04/10 01:59:43;;;;;;;5.07;3.13;;;3.20;99.00;;;;;;5037081;28;20017;-77
2023/04/10 02:02:10;;;;;;;4.65;3.03;;;3.10;99.40;;;;;;5035676;28;20139;-78
2023/04/10 02:04:36;;;;;;;4.68;2.97;;;3.10;99.30;;;;;;5034684;28;20025;-76
2023/04/10 02:07:06;;;;;;;4.50;3.25;;;3.10;99.30;;;;;;5041079;28;20432;-78
2023/04/10 02:09:35;;;;;;;4.53;3.05;;;3.10;99.50;;;;;;5046810;28;20022;-77
2023/04/10 02:12:05;;;;;;;4.38;3.30;;;3.00;99.60;;;;;;5034893;28;20445;-78
2023/04/10 02:14:32;;;;;;;4.68;3.28;;;3.00;99.60;;;;;;5032983;28;20053;-76
2023/04/10 02:17:00;;;;;;;4.70;2.78;;;3.00;99.40;;;;;;5035140;28;20124;-77
2023/04/10 02:19:27;;;;;;;4.55;2.85;;;3.00;99.80;;;;;;5035360;28;20518;-77
2023/04/10 02:21:53;;;;;;;2.88;2.30;;;3.00;99.80;;;;;;5035952;28;20038;-76
2023/04/10 02:24:20;;;;;;;3.05;2.20;;;3.00;99.80;;;;;;5035056;28;20423;-78
2023/04/10 02:26:47;;;;;;;3.03;2.25;;;2.90;99.90;;;;;;5038248;28;20097;-77
2023/04/10 02:29:13;;;;;;;2.35;2.10;;;3.00;99.90;;;;;;5036232;28;20389;-77
2023/04/10 02:31:40;;;;;;;2.55;2.15;;;2.90;99.90;;;;;;5032928;28;20065;-79
2023/04/10 02:34:06;;;;;;;2.80;2.00;;;2.90;99.90;;;;;;5033944;28;20032;-77
2023/04/10 02:36:32;;;;;;;2.42;1.88;;;3.00;99.90;;;;;;5036346;28;20364;-76
2023/04/10 02:38:58;;;;;;;2.85;2.10;;;2.90;99.90;;;;;;5042588;28;20371;-76
2023/04/10 02:41:23;;;;;;;2.22;1.90;;;2.90;99.90;;;;;;5048850;28;20039;-76
2023/04/10 02:43:49;;;;;;;2.67;2.08;;;2.90;99.90;;;;;;5054537;28;20059;-77
2023/04/10 02:46:15;;;;;;;2.22;1.90;;;2.80;99.90;;;;;;5051801;28;20029;-78
2023/04/10 02:48:40;;;;;;;3.65;2.67;;;2.80;99.90;;;;;;5053363;28;20040;-78
2023/04/10 02:51:06;;;;;;;3.80;2.28;;;2.80;99.90;;;;;;5053910;28;20482;-77
2023/04/10 02:53:33;;;;;;;2.42;1.80;;;2.80;99.90;;;;;;5054395;28;20025;-77
2023/04/10 02:55:58;;;;;;;2.70;2.10;;;2.80;99.90;;;;;;5054827;28;20052;-77
2023/04/10 02:58:24;;;;;;;2.50;1.85;;;2.80;99.90;;;;;;5058525;28;20021;-76
2023/04/10 03:00:50;;;;;;;3.50;2.20;;;2.80;99.90;;;;;;5059933;28;20025;-77
2023/04/10 03:03:18;;;;;;;1.83;1.70;;;2.70;99.90;;;;;;5065786;28;20032;-78
2023/04/10 03:05:45;;;;;;;2.80;2.10;;;2.70;99.90;;;;;;5066352;28;20021;-76
2023/04/10 03:08:12;;;;;;;1.83;1.55;;;2.70;99.90;;;;;;5062454;28;20032;-76
2023/04/10 03:10:38;;;;;;;2.72;2.17;;;2.70;99.90;;;;;;5057647;28;20132;-77
2023/04/10 03:13:04;;;;;;;2.92;2.30;;;2.70;99.90;;;;;;5047575;28;20121;-77
2023/04/10 03:15:31;;;;;;;2.55;1.65;;;2.70;99.90;;;;;;5032912;28;20023;-77
2023/04/10 03:17:56;;;;;;;2.88;1.77;;;2.70;99.90;;;;;;5034349;28;20485;-76
2023/04/10 03:20:22;;;;;;;2.22;1.90;;;2.70;99.90;;;;;;5034729;28;20037;-77
2023/04/10 03:22:48;;;;;;;3.13;2.15;;;2.70;99.90;;;;;;5035571;28;20167;-78
2023/04/10 03:25:13;;;;;;;3.03;2.13;;;2.70;99.90;;;;;;5039674;28;20021;-77
2023/04/10 03:27:39;;;;;;;2.70;1.90;;;2.60;99.90;;;;;;5034768;28;20113;-76
2023/04/10 03:30:05;;;;;;;3.70;2.35;;;2.60;99.90;;;;;;5045825;28;20503;-77
2023/04/10 03:32:31;;;;;;;2.63;1.85;;;2.60;99.90;;;;;;5057452;28;20029;-77
2023/04/10 03:34:57;;;;;;;2.22;1.85;;;2.60;99.90;;;;;;5073917;28;20073;-77
2023/04/10 03:37:24;;;;;;;2.47;1.92;;;2.60;99.90;;;;;;5072830;28;20104;-77
2023/04/10 03:39:49;;;;;;;2.55;2.05;;;2.60;99.90;;;;;;5064754;28;20499;-79
2023/04/10 03:42:15;;;;;;;2.30;1.70;;;2.60;99.90;;;;;;5073939;28;20033;-78
2023/04/10 03:44:41;;;;;;;2.47;2.00;;;2.60;99.90;;;;;;5071444;28;20032;-77
2023/04/10 03:47:06;;;;;;;3.90;1.95;;;2.60;99.90;;;;;;5065937;28;20032;-78
2023/04/10 03:49:32;;;;;;;3.47;2.42;;;2.60;99.90;;;;;;5070045;28;20075;-77
2023/04/10 03:51:58;;;;;;;3.40;2.47;;;2.60;99.90;;;;;;5073349;28;20029;-78
2023/04/10 03:54:23;;;;;;;5.00;2.70;;;2.50;99.90;;;;;;5071878;28;20036;-78
2023/04/10 03:56:49;;;;;;;3.90;2.75;;;2.60;99.90;;;;;;5070479;28;20083;-76
2023/04/10 03:59:15;;;;;;;3.85;2.80;;;2.60;99.90;;;;;;5071407;28;20077;-77
2023/04/10 04:01:40;;;;;;;5.05;3.25;;;2.50;99.90;;;;;;5064288;28;20056;-77
2023/04/10 04:04:06;;;;;;;5.38;3.08;;;2.50;99.90;;;;;;5052170;28;20021;-77
2023/04/10 04:06:32;;;;;;;5.55;3.47;;;2.50;99.90;;;;;;5053003;28;20083;-77
2023/04/10 04:08:57;;;;;;;4.70;3.42;;;2.50;99.90;;;;;;5053476;28;20100;-77
2023/04/10 04:11:23;;;;;;;4.30;2.95;;;2.50;99.90;;;;;;5052472;28;20104;-77
2023/04/10 04:13:49;;;;;;;5.13;3.17;;;2.50;99.90;;;;;;5053028;28;20116;-77
2023/04/10 04:16:14;;;;;;;6.05;4.10;;;2.40;99.90;;;;;;5052798;28;20108;-77
2023/04/10 04:18:41;;;;;;;7.50;5.25;;;2.40;99.90;;;;;;5052999;28;20025;-77
2023/04/10 04:21:07;;;;;;;7.63;4.82;;;2.30;99.90;;;;;;5047814;28;20066;-77
2023/04/10 04:23:33;;;;;;;6.82;5.05;;;2.40;99.90;;;;;;5032837;28;20025;-76
2023/04/10 04:25:58;;;;;;;6.65;4.40;;;2.30;99.90;;;;;;5033501;28;20045;-77
2023/04/10 04:28:24;;;;;;;6.88;4.50;;;2.30;99.90;;;;;;5033806;28;20018;-76
2023/04/10 04:30:50;;;;;;;6.60;4.70;;;2.30;99.90;;;;;;5033967;28;20026;-76
2023/04/10 04:33:15;;;;;;;5.88;4.15;;;2.30;99.90;;;;;;5034535;28;20041;-76
2023/04/10 04:35:41;;;;;;;8.38;5.40;;;2.20;99.90;;;;;;5034168;28;20033;-77
2023/04/10 04:38:10;;;;;;;5.63;3.90;;;2.20;99.90;;;;;;5043868;28;20029;-76
2023/04/10 04:40:35;;;;;;;5.97;3.95;;;2.20;99.90;;;;;;5053306;28;20017;-77
2023/04/10 04:43:01;;;;;;;5.53;4.10;;;2.30;99.90;;;;;;5054951;28;20052;-77
2023/04/10 04:45:28;;;;;;;6.47;4.22;;;2.30;99.90;;;;;;5048130;28;20021;-76
2023/04/10 04:47:57;;;;;;;5.82;3.83;;;2.30;99.90;;;;;;5035375;28;20029;-77
2023/04/10 04:50:23;;;;;;;5.55;3.80;;;2.30;99.90;;;;;;5036204;28;20033;-76
2023/04/10 04:52:49;;;;;;;5.43;3.55;;;2.30;99.90;;;;;;5052711;28;20135;-78
2023/04/10 04:55:14;;;;;;;5.15;3.65;;;2.30;99.90;;;;;;5052603;28;20047;-77
2023/04/10 04:57:40;;;;;;;5.18;3.38;;;2.30;99.90;;;;;;5050370;28;20040;-78
2023/04/10 05:00:06;;;;;;;4.93;3.33;;;2.40;99.90;;;;;;5051630;28;20029;-77
2023/04/10 05:02:32;;;;;;;3.63;3.05;;;2.40;99.90;;;;;;5052279;28;20025;-78
2023/04/10 05:04:58;;;;;;;4.32;2.97;;;2.50;99.90;;;;;;5051520;28;20028;-77
2023/04/10 05:07:24;;;;;;;4.38;2.78;;;2.50;99.90;;;;;;5052303;28;20057;-76
2023/04/10 05:09:49;;;;;;;3.20;2.70;;;2.50;99.90;;;;;;5046243;28;20049;-76
2023/04/10 05:12:15;;;;;;;3.20;1.80;;;2.60;99.90;;;;;;5040663;28;20030;-77
2023/04/10 05:14:41;;;;;;;3.00;2.38;;;2.60;99.90;;;;;;5035592;28;20033;-77
2023/04/10 05:17:06;;;;;;;3.80;2.92;;;2.70;99.90;;;;;;5033147;28;20501;-79
2023/04/10 05:19:32;;;;;;;3.30;2.38;;;2.70;99.90;;;;;;5031296;28;20075;-77
2023/04/10 05:21:57;;;;;;;2.55;2.35;;;2.70;99.90;;;;;;5031505;28;20067;-77
2023/04/10 05:24:23;;;;;;;5.15;2.80;;;2.70;99.90;;;;;;5029861;28;20517;-77
2023/04/10 05:26:49;;;;;;;2.70;2.10;;;2.80;99.90;;;;;;5033157;28;20445;-77
2023/04/10 05:29:14;;;;;;;3.85;2.60;;;2.90;99.90;;;;;;5044594;28;20029;-78
2023/04/10 05:31:40;;;;;;;2.92;2.42;;;2.90;99.90;;;;;;5057752;28;20021;-76
2023/04/10 05:34:06;;;;;;;3.00;2.13;;;3.00;99.90;;;;;;5060224;28;20029;-76
2023/04/10 05:36:31;;;;;;;3.35;2.00;;;3.10;99.90;;;;;;5050724;28;20159;-77
2023/04/10 05:38:57;;;;;;;2.13;1.92;;;3.20;99.90;;;;;;5054296;28;20075;-77
2023/04/10 05:41:23;;;;;;;2.05;1.73;;;3.20;99.90;;;;;;5057125;28;20021;-78
2023/04/10 05:43:49;;;;;;;5.95;3.88;;;3.20;99.90;;;;;;5043215;28;20029;-77
2023/04/10 05:46:15;;;;;;;7.70;5.22;;;3.30;99.90;;;;;;5039775;28;20040;-78
2023/04/10 05:48:40;;;;;;;7.07;4.75;;;3.20;99.90;;;;;;5038758;28;20025;-78
2023/04/10 05:51:06;;;;;;;6.60;4.70;;;3.30;99.90;;;;;;5043119;28;20411;-78
2023/04/10 05:53:32;;;;;;;6.72;4.50;;;3.30;99.90;;;;;;5042378;28;20037;-76
2023/04/10 05:55:58;;;;;;;5.47;4.30;;;3.30;99.90;;;;;;5061179;28;20051;-77
2023/04/10 05:58:27;;;;;;;6.43;3.67;;;3.40;99.90;;;;;;5059615;28;20056;-75
2023/04/10 06:00:55;;;;;;;5.03;3.78;;;3.50;99.90;;;;;;5059927;28;20032;-76
2023/04/10 06:03:21;;;;;;;3.80;2.83;;;3.60;99.90;;;;;;5058540;28;20151;-77
2023/04/10 06:05:47;;;;;;;4.47;2.92;;;3.70;99.90;;;;;;5056137;28;20024;-77
2023/04/10 06:08:12;;;;;;;5.10;3.53;;;3.80;99.90;;;;;;5054893;28;20093;-77
2023/04/10 06:10:39;;;;;;;4.82;3.28;;;3.80;99.90;;;;;;5047500;28;20028;-77
2023/04/10 06:13:05;;;;;;;4.20;3.08;;;4.00;99.90;;;;;;5057670;28;20101;-76
2023/04/10 06:15:31;;;;;;;4.85;3.65;;;4.10;99.90;;;;;;5056094;28;20502;-76
2023/04/10 06:17:56;;;;;;;5.15;3.50;;;4.20;99.90;;;;;;5055282;28;20111;-76
2023/04/10 06:20:22;;;;;;;4.55;3.50;;;4.20;99.70;;;;;;5050303;28;20340;-77
2023/04/10 06:22:48;;;;;;;4.65;3.50;;;4.30;99.60;;;;;;5035539;28;20363;-78
2023/04/10 06:25:14;;;;;;;5.07;3.38;;;4.40;99.50;;;;;;5039147;28;20032;-78
2023/04/10 06:27:40;;;;;;;4.20;2.90;;;4.50;99.30;;;;;;5056192;28;20441;-78
2023/04/10 06:30:06;;;;;;;4.80;3.22;;;4.60;99.10;;;;;;5052687;28;20378;-77
2023/04/10 06:32:32;;;;;;;3.08;2.70;;;4.70;99.00;;;;;;5055400;28;20515;-77
2023/04/10 06:34:57;;;;;;;4.25;2.80;;;4.80;98.60;;;;;;5043359;28;20029;-77
2023/04/10 06:37:30;;;;;;;7.28;4.57;;;4.80;98.30;;;;;;5048867;28;20058;-76
2023/04/10 06:40:07;;;;;;;6.07;4.72;;;4.90;98.00;;;;;;5046799;28;20023;-77
2023/04/10 06:42:33;;;;;;;5.75;4.07;;;5.00;97.70;;;;;;5043213;28;20030;-76
2023/04/10 06:44:59;;;;;;;6.07;4.57;;;5.10;97.60;;;;;;5053426;28;20017;-79
2023/04/10 06:47:25;;;;;;;6.53;4.22;;;5.10;97.30;;;;;;5053063;28;20087;-78
2023/04/10 06:49:51;;;;;;;5.65;4.25;;;5.20;97.10;;;;;;5059955;28;20025;-79
2023/04/10 06:52:17;;;;;;;7.70;5.45;;;5.30;96.80;;;;;;5059433;28;20100;-79
2023/04/10 06:54:42;;;;;;;6.50;4.50;;;5.40;96.50;;;;;;5056879;28;20474;-79
2023/04/10 06:57:08;;;;;;;5.55;3.97;;;5.50;96.40;;;;;;5054462;28;20033;-78
2023/04/10 06:59:34;;;;;;;7.43;5.00;;;5.60;96.20;;;;;;5059288;28;20017;-79
2023/04/10 07:02:02;;;;;;;6.57;4.75;;;5.70;95.90;;;;;;5037421;28;20095;-78
2023/04/10 07:04:27;;;;;;;6.00;4.50;;;5.90;95.70;;;;;;5033793;28;20481;-78
2023/04/10 07:06:53;;;;;;;6.20;4.40;;;6.00;95.30;;;;;;5038132;28;20103;-79
2023/04/10 07:09:19;;;;;;;4.35;3.47;;;6.10;95.20;;;;;;5047008;28;20030;-77
2023/04/10 07:11:44;;;;;;;7.18;4.82;;;6.20;94.90;;;;;;5057249;28;20036;-78
2023/04/10 07:14:10;;;;;;;8.27;5.65;;;6.30;94.60;;;;;;5054859;28;20025;-78
2023/04/10 07:16:36;;;;;;;7.05;5.07;;;6.40;94.40;;;;;;5052062;28;20049;-78
2023/04/10 07:19:02;;;;;;;7.22;4.63;;;6.50;94.10;;;;;;5047202;28;20529;-79
2023/04/10 07:21:28;;;;;;;6.85;4.90;;;6.70;93.80;;;;;;5043504;28;20021;-79
2023/04/10 07:23:54;;;;;;;7.60;4.90;;;6.80;93.30;;;;;;5045988;28;20021;-79
2023/04/10 07:26:19;;;;;;;6.88;4.70;;;7.00;92.80;;;;;;5060114;28;20024;-78
2023/04/10 07:28:45;;;;;;;6.43;5.05;;;7.10;92.50;;;;;;5058934;28;20060;-77
2023/04/10 07:31:12;;;;;;;7.60;5.28;;;7.20;92.00;;;;;;5039723;28;20061;-76
2023/04/10 07:33:39;;;;;;;8.32;6.05;;;7.30;91.40;;;;;;5046173;28;20091;-75
2023/04/10 07:36:06;;;;;;;7.03;5.20;;;7.40;90.60;;;;;;5034052;28;20116;-75
2023/04/10 07:38:32;;;;;;;5.80;4.63;;;7.50;90.30;;;;;;5051268;28;20021;-75
2023/04/10 07:40:58;;;;;;;5.82;4.50;;;7.60;90.10;;;;;;5045169;28;20061;-76
2023/04/10 07:43:24;;;;;;;6.45;4.72;;;7.70;89.30;;;;;;5035663;28;20548;-77
2023/04/10 07:45:51;;;;;;;5.05;4.40;;;7.80;88.10;;;;;;5034226;28;20026;-76
2023/04/10 07:48:17;;;;;;;7.32;5.20;;;7.90;87.90;;;;;;5035168;28;20025;-76
2023/04/10 07:50:43;;;;;;;5.22;4.15;;;8.10;87.10;;;;;;5040010;28;20021;-77
2023/04/10 07:53:08;;;;;;;5.32;4.65;;;8.30;86.40;;;;;;5054963;28;20359;-76
2023/04/10 07:55:42;;;;;;;5.40;4.13;;;8.40;85.60;;;;;;5049844;28;20040;-77
2023/04/10 07:58:08;;;;;;;4.47;3.80;;;8.60;85.00;;;;;;5034655;28;20063;-75
2023/04/10 08:00:36;;;;;;;5.10;4.03;;;8.80;83.90;;;;;;5034440;28;20103;-76
2023/04/10 08:03:03;;;;;;;4.65;3.63;;;9.00;82.70;;;;;;5034882;28;20340;-76
2023/04/10 08:05:29;;;;;;;4.75;3.60;;;9.10;81.70;;;;;;5033417;28;20025;-76
2023/04/10 08:07:55;;;;;;;4.43;3.75;;;9.30;80.60;;;;;;5038040;28;20355;-75
2023/04/10 08:10:21;;;;;;;4.47;3.95;;;9.40;80.10;;;;;;5046818;28;20036;-76
2023/04/10 08:12:47;;;;;;;6.10;4.57;;;9.50;79.00;;;;;;5055778;28;20069;-77
2023/04/10 08:15:13;;;;;;;4.30;3.75;;;9.60;78.30;;;;;;5053738;28;20059;-76
2023/04/10 08:17:39;;;;;;;4.55;3.88;;;9.80;77.80;;;;;;5048769;28;20037;-77
2023/04/10 08:20:05;;;;;;;3.72;3.28;;;10.00;76.90;;;;;;5052665;28;20025;-77
2023/04/10 08:22:31;;;;;;;4.20;3.42;;;10.20;76.10;;;;;;5048243;28;20369;-76
2023/04/10 08:24:56;;;;;;;4.72;3.83;;;10.50;75.20;;;;;;5051405;28;20025;-77
2023/04/10 08:27:22;;;;;;;4.95;4.28;;;10.60;74.10;;;;;;5054133;28;20123;-76
2023/04/10 08:29:48;;;;;;;5.30;4.38;;;10.80;72.60;;;;;;5054906;28;20071;-77
2023/04/10 08:32:13;;;;;;;5.30;3.97;;;10.70;71.80;;;;;;5054181;28;20039;-77
2023/04/10 08:34:39;;;;;;;4.45;3.97;;;10.60;71.60;;;;;;5052981;28;20381;-77
2023/04/10 08:37:05;;;;;;;4.65;3.60;;;10.70;71.70;;;;;;5053476;28;20029;-78
2023/04/10 08:39:37;;;;;;;5.63;4.38;;;10.80;71.20;;;;;;5044464;28;20327;-77
2023/04/10 08:42:04;;;;;;;5.10;4.28;;;10.90;70.20;;;;;;5033294;28;20032;-77
2023/04/10 08:44:30;;;;;;;5.15;4.20;;;11.10;69.30;;;;;;5033542;28;20107;-76
2023/04/10 08:46:59;;;;;;;4.90;4.45;;;11.10;67.90;;;;;;5031764;28;20036;-76
2023/04/10 08:49:43;;;;;;;6.13;4.80;;;11.10;67.80;;;;;;5034552;28;20548;-76
2023/04/10 08:52:19;;;;;;;4.43;4.03;;;11.10;66.60;;;;;;5047880;28;20037;-76
2023/04/10 08:54:49;;;;;;;4.10;3.70;;;11.00;66.50;;;;;;5032348;28;20048;-76
2023/04/10 08:57:17;;;;;;;4.72;4.07;;;11.10;66.50;;;;;;5030723;28;20047;-78
2023/04/10 08:59:43;;;;;;;3.58;3.20;;;11.20;66.30;;;;;;5035306;28;20027;-76
2023/04/10 09:02:08;;;;;;;4.00;3.20;;;11.50;66.20;;;;;;5034324;28;20025;-77
2023/04/10 09:04:35;;;;;;;3.22;2.92;;;11.80;65.10;;;;;;5032991;28;20025;-76
2023/04/10 09:07:01;;;;;;;4.03;3.53;;;12.10;64.20;;;;;;5032725;28;20025;-77
2023/04/10 09:09:31;;;;;;;3.38;3.05;;;12.30;63.40;;;;;;5032606;28;20041;-78
2023/04/10 09:12:02;;;;;;;3.38;2.92;;;12.40;62.90;;;;;;5052397;28;20040;-76
2023/04/10 09:14:34;;;;;;;4.07;3.20;;;12.50;62.50;;;;;;5053168;28;20056;-76
2023/04/10 09:17:16;;;;;;;3.50;3.20;;;12.70;61.80;;;;;;5052595;28;20077;-78
2023/04/10 09:19:44;;;;;;;4.00;3.50;;;12.80;60.90;;;;;;5053242;28;20453;-77
2023/04/10 09:22:10;;;;;;;4.82;4.03;;;12.80;60.50;;;;;;5052895;28;20025;-77
2023/04/10 09:24:41;;;;;;;6.45;4.40;;;12.90;60.20;;;;;;5052766;28;20505;-76
2023/04/10 09:27:07;;;;;;;4.60;3.97;;;13.00;59.60;;;;;;5050845;28;20063;-76
2023/04/10 09:29:47;;;;;;;3.47;3.17;;;12.90;59.10;;;;;;5050652;28;20338;-76
2023/04/10 09:32:13;;;;;;;4.22;3.88;;;12.90;58.90;;;;;;5040467;28;20026;-77
2023/04/10 09:34:58;;;;;;;4.03;3.63;;;12.90;57.90;;;;;;5032443;28;20479;-77
2023/04/10 09:37:31;;;;;;;3.22;2.88;;;12.90;58.40;;;;;;5032444;28;20048;-77
2023/04/10 09:39:56;;;;;;;4.25;3.17;;;13.10;58.70;;;;;;5032143;28;20612;-77
2023/04/10 09:42:36;;;;;;;3.65;3.00;;;13.50;57.70;;;;;;5032680;28;20087;-77
2023/04/10 09:45:02;;;;;;;3.65;3.10;;;13.60;56.70;;;;;;5033643;28;20026;-77
2023/04/10 09:47:29;;;;;;;3.42;2.95;;;13.70;56.10;;;;;;5034483;28;20033;-77
2023/04/10 09:49:59;;;;;;;4.50;3.88;;;13.90;55.60;;;;;;5034086;28;20060;-77
2023/04/10 09:52:30;;;;;;;3.97;3.47;;;13.80;54.70;;;;;;5034841;28;20044;-77
2023/04/10 09:55:04;;;;;;;3.30;2.63;;;13.80;55.80;;;;;;5035164;28;20085;-77
2023/04/10 09:57:31;;;;;;;3.30;3.00;;;14.00;54.60;;;;;;5035437;28;20026;-79
2023/04/10 10:00:08;;;;;;;4.13;2.70;;;14.10;54.10;;;;;;5035414;28;20030;-77
2023/04/10 10:02:38;;;;;;;3.47;3.15;;;14.10;53.70;;;;;;5034278;28;20053;-77
2023/04/10 10:05:05;;;;;;;3.17;2.25;;;14.10;52.90;;;;;;5032769;28;20025;-77
2023/04/10 10:07:31;;;;;;;2.75;2.53;;;14.20;53.30;;;;;;5034108;28;20037;-77
2023/04/10 10:09:57;;;;;;;3.22;2.83;;;14.60;53.00;;;;;;5041450;28;20509;-77
2023/04/10 10:12:33;;;;;;;3.25;2.58;;;14.90;52.00;;;;;;5049303;28;20127;-76
2023/04/10 10:15:20;;;;;;;3.00;2.70;;;14.80;51.20;;;;;;5052823;28;20063;-76
2023/04/10 10:17:57;;;;;;;2.75;2.55;;;14.80;51.20;;;;;;5053396;28;20033;-77
2023/04/10 10:20:25;;;;;;;2.38;2.17;;;14.80;50.60;;;;;;5044485;28;20033;-78
2023/04/10 10:22:52;;;;;;;2.50;2.30;;;14.80;50.90;;;;;;5051621;28;20066;-78
2023/04/10 10:25:19;;;;;;;3.10;2.63;;;14.90;50.40;;;;;;5055999;28;20021;-76
2023/04/10 10:27:46;;;;;;;4.25;3.55;;;14.90;49.70;;;;;;5048912;28;20409;-76
2023/04/10 10:30:13;;;;;;;3.92;3.00;;;14.80;49.60;;;;;;5040099;28;20070;-75
2023/04/10 10:32:39;;;;;;;2.90;2.60;;;14.60;49.90;;;;;;5047708;28;20021;-78
2023/04/10 10:35:06;;;;;;;3.15;2.85;;;14.70;50.70;;;;;;5056805;28;20032;-76
2023/04/10 10:37:33;;;;;;;3.08;2.80;;;14.80;50.70;;;;;;5044053;28;20048;-77
2023/04/10 10:40:18;;;;;;;2.55;2.35;;;15.00;50.20;;;;;;5054721;28;20025;-77
2023/04/10 10:42:56;;;;;;;2.35;2.15;;;15.20;49.20;;;;;;5053871;28;20066;-77
2023/04/10 10:45:33;;;;;;;2.70;2.50;;;15.30;48.70;;;;;;5050433;28;20532;-76
2023/04/10 10:47:59;;;;;;;2.67;2.22;;;15.30;47.30;;;;;;5044677;28;20033;-76
2023/04/10 10:50:44;;;;;;;3.90;3.50;;;15.20;47.00;;;;;;5058132;28;20021;-77
2023/04/10 10:53:39;;;;;;;3.20;2.90;;;15.20;47.00;;;;;;5053497;28;20039;-76
2023/04/10 10:56:17;;;;;;;2.45;2.25;;;15.10;46.80;;;;;;5050161;28;20025;-76
2023/04/10 10:58:51;;;;;;;3.97;2.80;;;15.10;47.10;;;;;;5057629;28;20031;-77
2023/04/10 11:01:19;;;;;;;2.72;2.35;;;15.00;47.00;;;;;;5057297;28;20442;-77
2023/04/10 11:03:45;;;;;;;3.38;2.90;;;15.10;47.80;;;;;;5048930;28;20025;-76
2023/04/10 11:06:18;;;;;;;3.13;2.83;;;15.40;47.30;;;;;;5042267;28;20637;-76
2023/04/10 11:08:46;;;;;;;2.80;2.60;;;15.60;46.50;;;;;;5058603;28;20051;-77
2023/04/10 11:11:22;;;;;;;3.70;3.40;;;15.60;45.10;;;;;;5041582;28;20473;-76
2023/04/10 11:13:56;;;;;;;3.00;2.67;;;15.50;45.20;;;;;;5046422;28;20037;-77
2023/04/10 11:16:35;;;;;;;2.97;2.65;;;15.50;46.40;;;;;;5050085;28;20040;-77
2023/04/10 11:19:01;;;;;;;2.70;2.47;;;15.60;46.20;;;;;;5035196;28;20022;-76
2023/04/10 11:21:27;;;;;;;3.35;2.75;;;15.60;44.90;;;;;;5047912;28;20064;-76
2023/04/10 11:23:53;;;;;;;2.50;2.30;;;15.50;45.60;;;;;;5052528;28;20040;-77
2023/04/10 11:29:25;;;;;;;2.38;2.17;;;16.00;46.60;;;;;;5054199;28;20045;-78
2023/04/10 11:31:56;;;;;;;4.40;3.75;;;16.40;46.40;;;;;;5048313;28;20025;-76
2023/04/10 11:34:22;;;;;;;2.85;2.65;;;16.70;45.30;;;;;;5039130;28;20398;-77
2023/04/10 11:36:48;;;;;;;3.22;2.85;;;16.40;45.90;;;;;;5047090;28;20057;-77
2023/04/10 11:39:17;;;;;;;3.15;2.85;;;16.50;46.40;;;;;;5044203;28;20389;-77
2023/04/10 11:41:45;;;;;;;3.00;2.30;;;16.50;45.50;;;;;;5042528;28;20131;-77
2023/04/10 11:44:16;;;;;;;2.40;2.20;;;16.60;45.50;;;;;;5055046;28;20173;-77
2023/04/10 11:46:46;;;;;;;3.47;3.17;;;16.60;44.80;;;;;;5066654;28;20025;-79
2023/04/10 11:49:19;;;;;;;3.17;2.70;;;16.40;44.00;;;;;;5074300;28;20025;-78
2023/04/10 11:51:48;;;;;;;2.53;2.33;;;16.20;44.30;;;;;;5067644;28;20033;-76
2023/04/10 11:54:16;;;;;;;2.53;2.33;;;16.20;44.40;;;;;;5054378;28;20048;-77
2023/04/10 11:57:10;;;;;;;2.83;2.53;;;16.20;44.40;;;;;;5053492;28;20108;-77
2023/04/10 11:59:36;;;;;;;2.78;2.58;;;16.40;44.20;;;;;;5051856;28;20047;-78
2023/04/10 12:02:09;;;;;;;2.05;1.95;;;16.40;44.40;;;;;;5053420;28;20102;-78
2023/04/10 12:04:36;;;;;;;2.45;2.25;;;16.60;44.10;;;;;;5052811;28;20514;-76
2023/04/10 12:07:02;;;;;;;2.08;1.85;;;16.70;43.80;;;;;;5053594;28;20029;-78
2023/04/10 12:09:27;;;;;;;2.10;2.00;;;17.00;43.80;;;;;;5047418;28;20382;-76
2023/04/10 12:12:00;;;;;;;1.88;1.77;;;17.30;43.10;;;;;;5052236;28;20025;-77
2023/04/10 12:14:39;;;;;;;1.80;1.70;;;17.60;42.90;;;;;;5053793;28;20036;-76
2023/04/10 12:17:08;;;;;;;2.40;2.20;;;17.70;42.30;;;;;;5039391;28;20112;-77
2023/04/10 12:19:34;;;;;;;2.10;1.90;;;17.70;41.80;;;;;;5046127;28;20134;-77
2023/04/10 12:22:03;;;;;;;2.15;1.95;;;17.70;41.80;;;;;;5042683;28;20033;-78
2023/04/10 12:24:44;;;;;;;2.88;2.67;;;17.70;42.10;;;;;;5038294;28;20043;-77
2023/04/10 12:27:18;;;;;;;2.10;2.00;;;17.40;41.30;;;;;;5051149;28;20025;-78
2023/04/10 12:29:45;;;;;;;2.10;2.00;;;17.20;42.20;;;;;;5049812;28;20264;-77
2023/04/10 12:32:11;;;;;;;2.30;2.08;;;17.30;42.40;;;;;;5044167;28;20032;-77
2023/04/10 12:34:37;;;;;;;2.70;2.45;;;17.40;42.10;;;;;;5050744;28;20029;-77
2023/04/10 12:37:03;;;;;;;3.00;2.70;;;17.30;42.00;;;;;;5039660;28;20401;-76
2023/04/10 12:39:29;;;;;;;2.95;2.70;;;16.90;42.10;;;;;;5043637;28;20044;-76
2023/04/10 12:42:38;;;;;;;2.35;2.15;;;16.60;42.30;;;;;;5035116;28;20029;-77
2023/04/10 12:45:05;;;;;;;2.95;2.67;;;16.50;43.50;;;;;;4988920;28;20036;-77
2023/04/10 12:47:43;;;;;;;2.55;2.35;;;16.60;43.20;;;;;;4983872;28;20455;-76
2023/04/10 12:50:13;;;;;;;2.50;2.28;;;16.60;42.90;;;;;;5028990;28;20037;-78
2023/04/10 12:52:41;;;;;;;2.60;2.40;;;16.60;43.00;;;;;;5054733;28;20745;-77
2023/04/10 12:55:18;;;;;;;2.28;2.08;;;16.50;43.20;;;;;;5057170;28;20056;-78
2023/04/10 12:57:46;;;;;;;2.10;1.90;;;16.80;43.30;;;;;;5058312;28;20036;-77
2023/04/10 13:00:19;;;;;;;2.35;2.15;;;17.10;42.90;;;;;;5053387;28;20131;-79
2023/04/10 13:02:46;;;;;;;2.40;2.20;;;17.10;41.60;;;;;;5058676;28;20136;-78